createdAt,value
2019-03-24T00:02:28.281Z,6.42
2019-03-24T00:04:59.187Z,6.39
2019-03-24T00:07:31.959Z,6.38
2019-03-24T00:10:06.587Z,6.36
2019-03-24T00:12:37.504Z,6.31
2019-03-24T00:15:08.896Z,6.28
2019-03-24T00:17:39.810Z,6.20
2019-03-24T00:20:11.092Z,6.16
2019-03-24T00:22:42.029Z,6.10
2019-03-24T00:25:12.928Z,6.05
2019-03-24T00:27:43.854Z,6.01
2019-03-24T00:30:14.960Z,5.97
2019-03-24T00:32:45.876Z,5.91
2019-03-24T00:35:16.781Z,5.88
2019-03-24T00:37:47.727Z,5.85
2019-03-24T00:40:18.689Z,5.82
2019-03-24T00:42:49.621Z,5.78
2019-03-24T00:45:20.510Z,5.75
2019-03-24T00:47:52.328Z,5.76
2019-03-24T00:50:23.235Z,5.76
2019-03-24T00:52:54.222Z,5.76
2019-03-24T00:55:25.118Z,5.78
2019-03-24T00:57:56.044Z,5.75
2019-03-24T01:00:47.324Z,5.78
2019-03-24T01:03:18.327Z,5.74
2019-03-24T01:05:49.330Z,5.74
2019-03-24T01:08:21.131Z,5.71
2019-03-24T01:10:52.818Z,5.69
2019-03-24T01:13:23.756Z,5.69
2019-03-24T01:15:54.657Z,5.70
2019-03-24T01:18:25.584Z,5.70
2019-03-24T01:20:56.475Z,5.73
2019-03-24T01:23:27.414Z,5.73
2019-03-24T01:25:58.302Z,5.74
2019-03-24T01:28:29.230Z,5.73
2019-03-24T01:31:00.116Z,5.75
2019-03-24T01:33:31.034Z,5.76
2019-03-24T01:36:01.922Z,5.79
2019-03-24T01:38:33.748Z,5.77
2019-03-24T01:41:08.233Z,5.79
2019-03-24T01:43:39.144Z,5.80
2019-03-24T01:46:10.053Z,5.81
2019-03-24T01:48:40.982Z,5.82
2019-03-24T01:51:11.877Z,5.82
2019-03-24T01:53:43.678Z,5.80
2019-03-24T01:56:14.570Z,5.77
2019-03-24T01:58:45.484Z,5.74
2019-03-24T02:01:16.456Z,5.75
2019-03-24T02:03:47.374Z,5.75
2019-03-24T02:06:18.259Z,5.76
2019-03-24T02:08:50.126Z,5.74
2019-03-24T02:11:21.794Z,5.72
2019-03-24T02:13:53.560Z,5.70
2019-03-24T02:16:24.476Z,5.66
2019-03-24T02:18:55.406Z,5.64
2019-03-24T02:21:26.306Z,5.65
2019-03-24T02:23:58.140Z,5.60
2019-03-24T02:26:29.100Z,5.60
2019-03-24T02:29:00.034Z,5.59
2019-03-24T02:31:34.490Z,5.59
2019-03-24T02:34:05.428Z,5.56
2019-03-24T02:36:36.333Z,5.55
2019-03-24T02:39:12.008Z,5.55
2019-03-24T02:41:42.907Z,5.55
2019-03-24T02:44:14.650Z,5.50
2019-03-24T02:46:45.557Z,5.51
2019-03-24T02:49:16.471Z,5.53
2019-03-24T02:51:47.436Z,5.54
2019-03-24T02:54:19.273Z,5.53
2019-03-24T02:56:50.141Z,5.53
2019-03-24T02:59:21.065Z,5.52
2019-03-24T03:01:51.962Z,5.52
2019-03-24T03:04:22.874Z,5.48
2019-03-24T03:06:53.774Z,5.45
2019-03-24T03:09:24.724Z,5.44
2019-03-24T03:11:55.623Z,5.42
2019-03-24T03:14:26.541Z,5.42
2019-03-24T03:16:57.434Z,5.40
2019-03-24T03:19:28.345Z,5.42
2019-03-24T03:21:59.252Z,5.37
2019-03-24T03:24:30.492Z,5.35
2019-03-24T03:27:01.495Z,5.30
2019-03-24T03:29:32.410Z,5.31
2019-03-24T03:32:04.426Z,5.29
2019-03-24T03:34:35.329Z,5.27
2019-03-24T03:37:06.416Z,5.26
2019-03-24T03:39:38.194Z,5.22
2019-03-24T03:42:09.124Z,5.22
2019-03-24T03:44:40.055Z,5.21
2019-03-24T03:47:10.949Z,5.20
2019-03-24T03:49:41.869Z,5.20
2019-03-24T03:52:12.787Z,5.15
2019-03-24T03:54:43.740Z,5.15
2019-03-24T03:57:17.173Z,5.11
2019-03-24T03:59:47.250Z,5.09
2019-03-24T04:02:18.239Z,5.03
2019-03-24T04:04:49.164Z,5.01
2019-03-24T04:07:20.054Z,4.95
2019-03-24T04:09:51.007Z,4.93
2019-03-24T04:12:22.708Z,4.88
2019-03-24T04:14:53.568Z,4.85
2019-03-24T04:17:24.535Z,4.82
2019-03-24T04:19:55.468Z,4.81
2019-03-24T04:22:26.367Z,4.79
2019-03-24T04:24:57.290Z,4.78
2019-03-24T04:27:28.200Z,4.74
2019-03-24T04:30:10.191Z,4.75
2019-03-24T04:32:37.133Z,4.74
2019-03-24T04:35:09.265Z,4.72
2019-03-24T04:37:40.156Z,4.72
2019-03-24T04:40:12.000Z,4.73
2019-03-24T04:42:42.896Z,4.71
2019-03-24T04:45:13.916Z,4.70
2019-03-24T04:47:44.812Z,4.71
2019-03-24T04:50:15.858Z,4.72
2019-03-24T04:52:46.726Z,4.72
2019-03-24T04:55:17.689Z,4.71
2019-03-24T04:57:48.592Z,4.72
2019-03-24T05:00:22.437Z,4.77
2019-03-24T05:02:56.334Z,4.82
2019-03-24T05:05:27.266Z,4.89
2019-03-24T05:07:58.671Z,4.96
2019-03-24T05:10:29.615Z,5.02
2019-03-24T05:13:01.293Z,5.09
2019-03-24T05:15:32.221Z,5.14
2019-03-24T05:18:03.124Z,5.24
2019-03-24T05:20:34.053Z,5.37
2019-03-24T05:23:07.892Z,5.55
2019-03-24T05:25:38.835Z,5.72
2019-03-24T05:28:09.720Z,5.96
2019-03-24T05:30:40.660Z,6.16
2019-03-24T05:33:17.544Z,6.29
2019-03-24T05:35:48.706Z,6.41
2019-03-24T05:38:19.606Z,6.48
2019-03-24T05:40:50.665Z,6.58
2019-03-24T05:43:21.560Z,6.65
2019-03-24T05:45:52.473Z,6.73
2019-03-24T05:48:23.383Z,6.97
2019-03-24T05:50:54.318Z,7.34
2019-03-24T05:53:25.226Z,7.58
2019-03-24T05:55:56.182Z,7.77
2019-03-24T05:58:27.074Z,7.89
2019-03-24T06:00:58.006Z,7.84
2019-03-24T06:03:28.910Z,7.80
2019-03-24T06:05:59.837Z,7.82
2019-03-24T06:08:30.729Z,7.81
2019-03-24T06:11:02.587Z,7.79
2019-03-24T06:13:33.464Z,7.82
2019-03-24T06:16:04.398Z,7.83
2019-03-24T06:18:35.313Z,7.87
2019-03-24T06:21:06.224Z,7.86
2019-03-24T06:23:37.124Z,7.88
2019-03-24T06:26:08.090Z,7.92
2019-03-24T06:28:38.986Z,7.95
2019-03-24T06:31:09.925Z,7.99
2019-03-24T06:33:40.828Z,8.04
2019-03-24T06:36:11.750Z,8.08
2019-03-24T06:38:42.651Z,8.11
2019-03-24T06:41:14.412Z,8.20
2019-03-24T06:43:45.312Z,8.19
2019-03-24T06:46:16.237Z,8.25
2019-03-24T06:48:47.142Z,8.21
2019-03-24T06:51:18.069Z,8.19
2019-03-24T06:53:48.962Z,8.24
2019-03-24T06:56:21.512Z,8.34
2019-03-24T06:58:52.404Z,8.41
2019-03-24T07:01:23.360Z,8.44
2019-03-24T07:03:54.222Z,8.50
2019-03-24T07:06:25.150Z,8.51
2019-03-24T07:08:56.050Z,8.51
2019-03-24T07:11:27.874Z,8.53
2019-03-24T07:13:58.769Z,8.46
2019-03-24T07:16:29.698Z,8.46
2019-03-24T07:19:00.595Z,8.50
2019-03-24T07:21:31.543Z,8.44
2019-03-24T07:24:02.433Z,8.49
2019-03-24T07:26:35.043Z,8.52
2019-03-24T07:29:05.961Z,8.59
2019-03-24T07:31:36.887Z,8.57
2019-03-24T07:34:07.843Z,8.53
2019-03-24T07:36:38.771Z,8.66
2019-03-24T07:39:09.741Z,8.68
2019-03-24T07:41:41.504Z,8.63
2019-03-24T07:44:12.394Z,8.75
2019-03-24T07:46:43.319Z,8.85
2019-03-24T07:49:14.298Z,8.94
2019-03-24T07:51:45.219Z,8.97
2019-03-24T07:54:16.186Z,8.98
2019-03-24T07:56:48.767Z,9.05
2019-03-24T07:59:19.667Z,9.04
2019-03-24T08:01:50.594Z,9.02
2019-03-24T08:04:21.495Z,8.99
2019-03-24T08:06:57.117Z,8.95
2019-03-24T08:09:28.579Z,8.99
2019-03-24T08:12:00.390Z,9.07
2019-03-24T08:14:32.130Z,9.22
2019-03-24T08:17:03.065Z,9.30
2019-03-24T08:19:33.960Z,9.38
2019-03-24T08:22:04.962Z,9.54
2019-03-24T08:24:36.103Z,9.72
2019-03-24T08:27:07.912Z,9.87
2019-03-24T08:29:40.131Z,10.05
2019-03-24T08:32:11.483Z,10.21
2019-03-24T08:34:42.375Z,10.33
2019-03-24T08:37:14.082Z,10.45
2019-03-24T08:39:44.995Z,10.57
2019-03-24T08:42:16.948Z,10.66
2019-03-24T08:44:47.865Z,10.70
2019-03-24T08:47:18.778Z,10.71
2019-03-24T08:49:50.191Z,10.76
2019-03-24T08:52:21.135Z,10.74
2019-03-24T08:54:52.064Z,10.72
2019-03-24T08:57:23.900Z,10.89
2019-03-24T08:59:54.819Z,10.90
2019-03-24T09:02:25.753Z,11.08
2019-03-24T09:04:56.682Z,11.16
2019-03-24T09:07:27.614Z,11.23
2019-03-24T09:09:58.522Z,11.14
2019-03-24T09:12:31.249Z,11.10
2019-03-24T09:15:02.113Z,11.19
2019-03-24T09:17:33.077Z,11.14
2019-03-24T09:20:05.364Z,11.19
2019-03-24T09:22:36.300Z,11.22
2019-03-24T09:25:08.122Z,11.37
2019-03-24T09:27:40.004Z,11.51
2019-03-24T09:30:16.385Z,11.61
2019-03-24T09:32:47.308Z,11.70
2019-03-24T09:35:18.222Z,11.71
2019-03-24T09:37:49.171Z,11.80
2019-03-24T09:40:28.605Z,11.88
2019-03-24T09:43:01.977Z,11.79
2019-03-24T09:45:33.173Z,11.76
2019-03-24T09:48:04.404Z,11.73
2019-03-24T09:50:35.305Z,11.78
2019-03-24T09:53:06.737Z,11.71
2019-03-24T09:55:37.645Z,11.59
2019-03-24T09:58:09.472Z,11.45
2019-03-24T10:00:40.378Z,11.42
2019-03-24T10:03:11.307Z,11.36
2019-03-24T10:05:42.229Z,11.30
2019-03-24T10:08:13.447Z,11.27
2019-03-24T10:10:44.318Z,11.23
2019-03-24T10:13:15.267Z,11.30
2019-03-24T10:15:46.186Z,11.29
2019-03-24T10:18:17.116Z,11.32
2019-03-24T10:20:51.140Z,11.41
2019-03-24T10:23:22.201Z,11.50
2019-03-24T10:25:53.064Z,11.49
2019-03-24T10:28:24.820Z,11.50
2019-03-24T10:30:55.731Z,11.58
2019-03-24T10:33:26.694Z,11.58
2019-03-24T10:35:57.612Z,11.60
2019-03-24T10:38:28.547Z,11.69
2019-03-24T10:40:59.449Z,11.74
2019-03-24T10:43:31.410Z,11.88
2019-03-24T10:46:08.034Z,12.03
2019-03-24T10:48:35.112Z,12.15
2019-03-24T10:51:06.078Z,12.18
2019-03-24T10:53:37.010Z,12.14
2019-03-24T10:56:07.907Z,12.21
2019-03-24T10:58:39.726Z,12.20
2019-03-24T11:01:10.710Z,12.12
2019-03-24T11:03:41.656Z,12.09
2019-03-24T11:06:12.565Z,12.14
2019-03-24T11:08:43.510Z,12.07
2019-03-24T11:11:14.430Z,12.16
2019-03-24T11:13:45.377Z,12.23
2019-03-24T11:16:17.944Z,12.22
2019-03-24T11:18:48.949Z,12.29
2019-03-24T11:21:19.849Z,12.22
2019-03-24T11:23:50.773Z,12.22
2019-03-24T11:26:21.684Z,12.23
2019-03-24T11:28:53.544Z,12.26
2019-03-24T11:31:24.455Z,12.27
2019-03-24T11:33:55.388Z,12.26
2019-03-24T11:36:26.292Z,12.26
2019-03-24T11:38:59.064Z,12.21
2019-03-24T11:41:29.826Z,12.27
2019-03-24T11:44:01.731Z,12.32
2019-03-24T11:46:32.665Z,12.25
2019-03-24T11:49:03.593Z,12.26
2019-03-24T11:51:34.502Z,12.30
2019-03-24T11:54:05.427Z,12.31
2019-03-24T11:56:36.338Z,12.24
2019-03-24T11:59:08.488Z,12.18
2019-03-24T12:01:39.635Z,12.23
2019-03-24T12:04:10.632Z,12.21
2019-03-24T12:06:41.552Z,12.15
2019-03-24T12:09:12.562Z,12.11
2019-03-24T12:11:43.458Z,12.12
2019-03-24T12:14:15.258Z,12.07
2019-03-24T12:16:47.869Z,11.96
2019-03-24T12:19:18.804Z,11.90
2019-03-24T12:21:49.784Z,11.96
2019-03-24T12:24:20.722Z,11.94
2019-03-24T12:26:51.636Z,11.82
2019-03-24T12:29:23.450Z,11.69
2019-03-24T12:31:54.351Z,11.59
2019-03-24T12:34:25.319Z,11.69
2019-03-24T12:36:56.444Z,11.67
2019-03-24T12:39:28.172Z,11.74
2019-03-24T12:41:59.075Z,11.74
2019-03-24T12:44:31.053Z,11.81
2019-03-24T12:47:01.960Z,11.81
2019-03-24T12:49:32.899Z,11.83
2019-03-24T12:52:03.808Z,11.54
2019-03-24T12:54:34.804Z,11.46
2019-03-24T12:57:05.722Z,11.42
2019-03-24T12:59:37.592Z,11.36
2019-03-24T13:02:08.513Z,11.39
2019-03-24T13:04:39.452Z,11.41
2019-03-24T13:07:10.366Z,11.49
2019-03-24T13:09:41.301Z,11.56
2019-03-24T13:12:12.227Z,11.59
2019-03-24T13:14:44.144Z,11.48
2019-03-24T13:17:15.928Z,11.51
2019-03-24T13:19:46.859Z,11.47
2019-03-24T13:22:19.152Z,11.45
2019-03-24T13:24:50.139Z,11.40
2019-03-24T13:27:21.054Z,11.47
2019-03-24T13:29:52.029Z,11.53
2019-03-24T13:32:22.931Z,11.53
2019-03-24T13:34:53.883Z,11.54
2019-03-24T13:37:24.791Z,11.50
2019-03-24T13:39:55.718Z,11.46
2019-03-24T13:42:26.617Z,11.45
2019-03-24T13:44:58.361Z,11.47
2019-03-24T13:47:29.276Z,11.50
2019-03-24T13:50:00.383Z,11.48
2019-03-24T13:52:31.296Z,11.46
2019-03-24T13:55:02.240Z,11.40
2019-03-24T13:57:33.269Z,11.46
2019-03-24T14:00:07.462Z,11.40
2019-03-24T14:02:40.946Z,11.37
2019-03-24T14:05:11.954Z,11.29
2019-03-24T14:07:44.851Z,11.33
2019-03-24T14:10:16.349Z,11.37
2019-03-24T14:12:47.376Z,11.44
2019-03-24T14:15:19.461Z,11.45
2019-03-24T14:17:51.408Z,11.46
2019-03-24T14:20:22.388Z,11.56
2019-03-24T14:22:55.350Z,11.61
2019-03-24T14:25:25.935Z,11.62
2019-03-24T14:27:56.918Z,11.39
2019-03-24T14:30:46.010Z,11.35
2019-03-24T14:33:16.934Z,11.29
2019-03-24T14:35:48.200Z,11.19
2019-03-24T14:38:19.114Z,11.18
2019-03-24T14:40:50.040Z,11.08
2019-03-24T14:43:20.958Z,11.12
2019-03-24T14:45:52.726Z,11.12
2019-03-24T14:48:23.632Z,11.09
2019-03-24T14:50:55.084Z,11.02
2019-03-24T14:53:26.156Z,10.96
2019-03-24T14:55:57.167Z,10.99
2019-03-24T14:58:28.087Z,10.96
2019-03-24T15:00:59.216Z,11.01
2019-03-24T15:03:30.138Z,11.03
2019-03-24T15:06:01.184Z,10.96
2019-03-24T15:08:32.162Z,10.81
2019-03-24T15:11:03.115Z,10.76
2019-03-24T15:13:34.103Z,10.74
2019-03-24T15:16:05.876Z,10.67
2019-03-24T15:18:37.572Z,10.65
2019-03-24T15:21:11.493Z,10.71
2019-03-24T15:23:42.253Z,10.76
2019-03-24T15:26:13.209Z,10.77
2019-03-24T15:28:44.141Z,10.73
2019-03-24T15:31:15.111Z,10.63
2019-03-24T15:33:46.016Z,10.63
2019-03-24T15:36:16.983Z,10.62
2019-03-24T15:38:47.886Z,10.56
2019-03-24T15:41:18.910Z,10.44
2019-03-24T15:43:49.934Z,10.38
2019-03-24T15:46:21.891Z,10.31
2019-03-24T15:48:52.829Z,10.28
2019-03-24T15:51:23.789Z,10.21
2019-03-24T15:53:56.772Z,10.00
2019-03-24T15:56:48.790Z,9.99
2019-03-24T15:59:20.657Z,9.88
2019-03-24T16:01:54.332Z,9.72
2019-03-24T16:04:25.340Z,9.64
2019-03-24T16:07:06.206Z,9.60
2019-03-24T16:09:48.383Z,9.55
2019-03-24T16:12:28.222Z,9.46
2019-03-24T16:15:00.581Z,9.35
2019-03-24T16:17:32.838Z,9.28
2019-03-24T16:20:07.486Z,9.21
2019-03-24T16:22:41.214Z,9.15
2019-03-24T16:25:12.107Z,9.05
2019-03-24T16:27:43.038Z,8.97
2019-03-24T16:30:13.966Z,8.88
2019-03-24T16:32:45.782Z,8.81
2019-03-24T16:35:16.679Z,8.75
2019-03-24T16:37:47.604Z,8.66
2019-03-24T16:40:19.259Z,8.60
2019-03-24T16:42:50.186Z,8.50
2019-03-24T16:45:21.150Z,8.50
2019-03-24T16:47:52.891Z,8.48
2019-03-24T16:50:23.806Z,8.46
2019-03-24T16:52:54.733Z,8.38
2019-03-24T16:55:27.830Z,8.26
2019-03-24T16:57:58.765Z,8.23
2019-03-24T17:00:29.756Z,8.13
2019-03-24T17:03:00.851Z,8.10
2019-03-24T17:05:31.830Z,8.03
2019-03-24T17:08:02.749Z,7.89
2019-03-24T17:10:33.774Z,7.87
2019-03-24T17:13:04.711Z,7.79
2019-03-24T17:15:35.613Z,7.74
2019-03-24T17:18:07.643Z,7.70
2019-03-24T17:20:41.556Z,7.58
2019-03-24T17:23:12.495Z,7.55
2019-03-24T17:25:43.402Z,7.46
2019-03-24T17:28:14.407Z,7.34
2019-03-24T17:30:45.318Z,7.27
2019-03-24T17:33:17.899Z,7.24
2019-03-24T17:35:48.862Z,7.22
2019-03-24T17:38:19.851Z,7.16
2019-03-24T17:40:50.772Z,7.08
2019-03-24T17:43:22.024Z,7.02
2019-03-24T17:45:54.474Z,7.02
2019-03-24T17:48:26.221Z,6.99
2019-03-24T17:50:57.130Z,6.97
2019-03-24T17:53:28.054Z,6.90
2019-03-24T17:55:58.951Z,6.88
2019-03-24T17:58:29.945Z,6.86
2019-03-24T18:01:01.928Z,6.79
2019-03-24T18:03:33.666Z,6.75
2019-03-24T18:06:04.585Z,6.70
2019-03-24T18:08:35.510Z,6.63
2019-03-24T18:11:06.416Z,6.57
2019-03-24T18:13:37.395Z,6.52
2019-03-24T18:16:08.336Z,6.45
2019-03-24T18:18:40.096Z,6.40
2019-03-24T18:21:11.777Z,6.33
2019-03-24T18:23:42.711Z,6.26
2019-03-24T18:26:13.617Z,6.20
2019-03-24T18:28:44.552Z,6.18
2019-03-24T18:31:15.459Z,6.17
2019-03-24T18:33:47.244Z,6.18
2019-03-24T18:36:18.311Z,6.15
2019-03-24T18:38:49.260Z,6.13
2019-03-24T18:41:20.168Z,6.07
2019-03-24T18:43:51.099Z,6.07
2019-03-24T18:46:22.021Z,6.08
2019-03-24T18:48:53.823Z,6.08
2019-03-24T18:51:24.741Z,6.08
2019-03-24T18:53:55.816Z,6.06
2019-03-24T18:56:26.720Z,6.02
2019-03-24T18:58:57.661Z,6.03
2019-03-24T19:01:28.570Z,6.02
2019-03-24T19:03:59.663Z,5.98
2019-03-24T19:06:30.558Z,5.96
2019-03-24T19:09:01.501Z,5.92
2019-03-24T19:11:33.350Z,5.91
2019-03-24T19:14:04.386Z,5.89
2019-03-24T19:16:35.300Z,5.85
2019-03-24T19:19:07.098Z,5.83
2019-03-24T19:21:38.810Z,5.84
2019-03-24T19:24:09.750Z,5.83
2019-03-24T19:26:40.669Z,5.85
2019-03-24T19:29:11.604Z,5.84
2019-03-24T19:31:42.705Z,5.84
2019-03-24T19:34:14.445Z,5.85
2019-03-24T19:36:45.358Z,5.86
2019-03-24T19:39:16.292Z,5.88
2019-03-24T19:41:47.226Z,5.90
2019-03-24T19:44:18.152Z,5.86
2019-03-24T19:46:49.069Z,5.87
2019-03-24T19:49:20.825Z,5.85
2019-03-24T19:51:51.721Z,5.81
2019-03-24T19:54:22.731Z,5.79
2019-03-24T19:56:53.630Z,5.81
2019-03-24T19:59:24.582Z,5.80
2019-03-24T20:01:55.491Z,5.79
2019-03-24T20:04:27.265Z,5.80
2019-03-24T20:06:58.163Z,5.78
2019-03-24T20:09:29.171Z,5.77
2019-03-24T20:12:00.071Z,5.72
2019-03-24T20:14:31.017Z,5.73
2019-03-24T20:17:02.003Z,5.75
2019-03-24T20:19:32.981Z,5.75
2019-03-24T20:22:05.484Z,5.72
2019-03-24T20:24:36.437Z,5.66
2019-03-24T20:27:07.344Z,5.66
2019-03-24T20:29:38.279Z,5.65
2019-03-24T20:32:09.243Z,5.61
2019-03-24T20:34:40.995Z,5.65
2019-03-24T20:37:11.890Z,5.64
2019-03-24T20:39:43.622Z,5.64
2019-03-24T20:42:14.532Z,5.62
2019-03-24T20:44:45.464Z,5.61
2019-03-24T20:47:16.455Z,5.61
2019-03-24T20:49:48.196Z,5.59
2019-03-24T20:52:19.102Z,5.58
2019-03-24T20:54:50.039Z,5.58
2019-03-24T20:57:20.934Z,5.56
2019-03-24T20:59:54.493Z,5.54
2019-03-24T21:02:25.458Z,5.53
2019-03-24T21:04:57.212Z,5.53
2019-03-24T21:07:28.111Z,5.53
2019-03-24T21:09:59.051Z,5.51
2019-03-24T21:12:29.951Z,5.50
2019-03-24T21:15:00.878Z,5.51
2019-03-24T21:17:31.771Z,5.48
2019-03-24T21:20:02.723Z,5.48
2019-03-24T21:22:34.443Z,5.46
2019-03-24T21:25:06.606Z,5.44
2019-03-24T21:27:37.609Z,5.39
2019-03-24T21:30:11.751Z,5.38
2019-03-24T21:32:42.580Z,5.37
2019-03-24T21:35:14.465Z,5.34
2019-03-24T21:37:45.374Z,5.33
2019-03-24T21:40:16.311Z,5.31
2019-03-24T21:42:47.274Z,5.30
2019-03-24T21:45:18.193Z,5.29
2019-03-24T21:47:49.106Z,5.29
2019-03-24T21:50:20.155Z,5.29
2019-03-24T21:52:51.059Z,5.29
2019-03-24T21:55:22.012Z,5.30
2019-03-24T21:57:57.497Z,5.32
2019-03-24T22:00:33.657Z,5.31
2019-03-24T22:03:04.822Z,5.32
2019-03-24T22:05:35.871Z,5.32
2019-03-24T22:08:06.781Z,5.33
2019-03-24T22:10:37.710Z,5.33
2019-03-24T22:13:08.610Z,5.32
2019-03-24T22:15:39.537Z,5.32
2019-03-24T22:18:10.458Z,5.30
2019-03-24T22:20:48.821Z,5.28
2019-03-24T22:23:15.590Z,5.25
2019-03-24T22:25:46.529Z,5.23
2019-03-24T22:28:17.428Z,5.21
2019-03-24T22:30:48.364Z,5.21
2019-03-24T22:33:19.266Z,5.19
2019-03-24T22:35:51.014Z,5.17
2019-03-24T22:38:21.911Z,5.15
2019-03-24T22:41:02.040Z,5.15
2019-03-24T22:43:32.945Z,5.14
2019-03-24T22:46:03.867Z,5.14
2019-03-24T22:48:34.760Z,5.15
2019-03-24T22:51:05.714Z,5.15
2019-03-24T22:53:36.603Z,5.16
2019-03-24T22:56:07.532Z,5.13
2019-03-24T22:58:38.497Z,5.11
2019-03-24T23:01:10.097Z,5.11
2019-03-24T23:03:41.047Z,5.10
2019-03-24T23:06:13.677Z,5.09
2019-03-24T23:08:44.686Z,5.09
2019-03-24T23:11:15.640Z,5.07
2019-03-24T23:13:46.679Z,5.08
2019-03-24T23:16:17.641Z,5.09
2019-03-24T23:18:48.607Z,5.09
2019-03-24T23:21:25.772Z,5.09
2019-03-24T23:23:57.656Z,5.09
2019-03-24T23:26:28.674Z,5.06
2019-03-24T23:28:59.677Z,5.07
2019-03-24T23:31:30.658Z,5.05
2019-03-24T23:34:08.906Z,5.06
2019-03-24T23:36:39.889Z,5.04
2019-03-24T23:39:10.821Z,5.04
2019-03-24T23:41:41.805Z,5.04
2019-03-24T23:44:12.716Z,5.03
2019-03-24T23:46:43.643Z,5.03
2019-03-24T23:49:14.554Z,5.00
2019-03-24T23:51:46.293Z,4.96
2019-03-24T23:54:27.083Z,4.94
2019-03-24T23:56:54.981Z,4.93
2019-03-24T23:59:25.890Z,4.90
